• Join FlightAware (Why Join?)
  • Login
  • US Flag 
Rudolph Flight #1: Arrived! 
03:08AM EST


 

Airport Tracker/Info


-or-


 

Live Flight TrackerFlight Track Log ✈ MSR663 ✈ 11-May-2013 ✈ HECA / CAI - OEJN / JED

Flight Track Log - Related Links

Times and Time Zones

All times are in EDT time to prevent confusion due to time zone crossing. See the MSR663 flight status page for this flight to view local times or setup timezone preferences in your user account.

Time Position Orientation Groundspeed Altitude Reporting Facility
EDT Latitude Longitude Course Direction KTS MPH feet Rate Location/Type
05:49PM 29.6602 31.8719 139° Southeast  Level Estimated
05:50PM 29.5831 31.9492 139° Southeast  Level Estimated
05:51PM 29.5059 32.0263 139° Southeast  Level Estimated
05:52PM 29.4287 32.1034 139° Southeast  Level Estimated
05:53PM 29.3515 32.1804 139° Southeast  Level Estimated
05:54PM 29.2742 32.2572 139° Southeast  Level Estimated
05:55PM 29.1969 32.3339 139° Southeast  Level Estimated
05:56PM 29.1195 32.4105 139° Southeast  Level Estimated
05:57PM 29.0421 32.4870 139° Southeast  Level Estimated
05:58PM 28.9646 32.5634 139° Southeast  Level Estimated
05:59PM 28.8871 32.6396 139° Southeast  Level Estimated
06:00PM 28.8095 32.7158 139° Southeast  Level Estimated
06:01PM 28.7319 32.7918 139° Southeast  Level Estimated
06:02PM 28.6543 32.8677 139° Southeast  Level Estimated
06:03PM 28.5766 32.9435 139° Southeast  Level Estimated
06:04PM 28.4989 33.0192 139° Southeast  Level Estimated
06:05PM 28.4211 33.0948 139° Southeast  Level Estimated
06:06PM 28.3433 33.1702 140° Southeast  Level Estimated
06:07PM 28.2655 33.2456 140° Southeast  Level Estimated
06:08PM 28.1876 33.3209 140° Southeast  Level Estimated
06:09PM 28.1097 33.3960 140° Southeast  Level Estimated
06:10PM 28.0317 33.4710 140° Southeast  Level Estimated
06:11PM 27.9537 33.5459 140° Southeast  Level Estimated
06:12PM 27.8756 33.6208 140° Southeast  Level Estimated
06:13PM 27.7976 33.6954 140° Southeast  Level Estimated
06:14PM 27.7194 33.7701 140° Southeast  Level Estimated
06:15PM 27.6413 33.8445 140° Southeast  Level Estimated
06:16PM 27.5630 33.9189 140° Southeast  Level Estimated
06:17PM 27.4848 33.9932 140° Southeast  Level Estimated
06:18PM 27.4065 34.0674 140° Southeast  Level Estimated
06:19PM 27.3282 34.1414 140° Southeast  Level Estimated
06:20PM 27.2498 34.2154 140° Southeast  Level Estimated
06:21PM 27.1714 34.2893 140° Southeast  Level Estimated
06:22PM 27.0929 34.3630 140° Southeast  Level Estimated
06:23PM 27.0145 34.4367 140° Southeast  Level Estimated
06:24PM 26.9359 34.5102 140° Southeast  Level Estimated
06:25PM 26.8574 34.5837 140° Southeast  Level Estimated
06:26PM 26.7788 34.6570 140° Southeast  Level Estimated
06:27PM 26.7001 34.7303 140° Southeast  Level Estimated
06:28PM 26.6215 34.8034 140° Southeast  Level Estimated
06:29PM 26.5428 34.8764 140° Southeast  Level Estimated
06:30PM 26.4640 34.9494 140° Southeast  Level Estimated
06:31PM 26.3852 35.0222 140° Southeast  Level Estimated
06:32PM 26.3064 35.0950 140° Southeast  Level Estimated
06:33PM 26.2276 35.1676 140° Southeast  Level Estimated
06:34PM 26.1487 35.2401 140° Southeast  Level Estimated
06:35PM 26.0697 35.3126 140° Southeast  Level Estimated
06:36PM 25.9908 35.3849 141° Southeast  Level Estimated
06:37PM 25.9118 35.4572 141° Southeast  Level Estimated
06:38PM 25.8327 35.5293 141° Southeast  Level Estimated
06:39PM 25.7537 35.6014 141° Southeast  Level Estimated
06:40PM 25.6745 35.6734 141° Southeast  Level Estimated
06:41PM 25.5954 35.7452 141° Southeast  Level Estimated
06:42PM 25.5162 35.8170 141° Southeast  Level Estimated
06:43PM 25.4370 35.8887 141° Southeast  Level Estimated
06:44PM 25.3577 35.9603 141° Southeast  Level Estimated
06:45PM 25.2785 36.0317 141° Southeast  Level Estimated
06:46PM 25.1991 36.1031 141° Southeast  Level Estimated
06:47PM 25.1198 36.1744 141° Southeast  Level Estimated
06:48PM 25.0404 36.2457 141° Southeast  Level Estimated
06:49PM 24.9610 36.3168 141° Southeast  Level Estimated
06:50PM 24.8815 36.3878 141° Southeast  Level Estimated
06:51PM 24.8020 36.4588 141° Southeast  Level Estimated
06:52PM 24.7225 36.5296 141° Southeast  Level Estimated
06:53PM 24.6430 36.6003 141° Southeast  Level Estimated
06:54PM 24.5634 36.6710 141° Southeast  Level Estimated
06:55PM 24.4837 36.7416 141° Southeast  Level Estimated
06:56PM 24.4041 36.8121 141° Southeast  Level Estimated
06:57PM 24.3244 36.8825 141° Southeast  Level Estimated
06:58PM 24.2447 36.9528 141° Southeast  Level Estimated
06:59PM 24.1649 37.0230 141° Southeast  Level Estimated
07:00PM 24.0852 37.0931 141° Southeast  Level Estimated
07:01PM 24.0053 37.1632 141° Southeast  Level Estimated
07:02PM 23.9255 37.2331 141° Southeast  Level Estimated
07:03PM 23.8456 37.3030 141° Southeast  Level Estimated
07:04PM 23.7657 37.3728 141° Southeast  Level Estimated
07:05PM 23.6858 37.4425 141° Southeast  Level Estimated
07:06PM 23.6058 37.5121 141° Southeast  Level Estimated
07:07PM 23.5258 37.5816 141° Southeast  Level Estimated
07:08PM 23.4458 37.6511 141° Southeast  Level Estimated
07:09PM 23.3657 37.7204 142° Southeast  Level Estimated
07:10PM 23.2856 37.7897 142° Southeast  Level Estimated
07:11PM 23.2055 37.8589 142° Southeast  Level Estimated
07:12PM 23.1253 37.9280 142° Southeast  Level Estimated
07:13PM 23.0451 37.9970 142° Southeast  Level Estimated
07:14PM 22.9649 38.0660 142° Southeast  Level Estimated
07:15PM 22.8846 38.1348 142° Southeast  Level Estimated
07:16PM 22.8044 38.2036 142° Southeast  Level Estimated
07:17PM 22.7241 38.2723 142° Southeast  Level Estimated
07:18PM 22.6437 38.3409 142° Southeast  Level Estimated
07:19PM 22.5634 38.4095 142° Southeast  Level Estimated
07:20PM 22.4830 38.4779 142° Southeast  Level Estimated
07:20PM 21.5620 39.1820 142° Southeast 176 203 2,200  Level FlightAware
07:20PM 21.5820 39.1750 342° North 178 205 1,900 -780 Descending FlightAware
07:21PM 21.6050 39.1660 340° North 161 185 1,500 -900 Descending FlightAware
07:21PM 21.6110 39.1630 335° Northwest 156 180 1,300 -480 Descending FlightAware
07:22PM 21.6460 39.1490 340° North 156 180 1,000 -480 Descending FlightAware
07:22PM 21.6630 39.1420 339° North 158 182 700 -600 Descending FlightAware
07:25PM 21.6796 39.1565 39° Northeast  Level Estimated
07:26PM 21.6796 39.1565 317° Northwest  Level Estimated
07:27PM 21.6796 39.1565 317° Northwest  Level Estimated
07:28PM 21.6796 39.1565 317° Northwest  Level Estimated
07:29PM 21.6796 39.1565 317° Northwest  Level Estimated
07:30PM 21.6796 39.1565 317° Northwest  Level Estimated
07:31PM 21.6796 39.1565 317° Northwest  Level Estimated
07:32PM 21.6796 39.1565 317° Northwest  Level Estimated
07:33PM 21.6796 39.1565 317° Northwest  Level Estimated
07:34PM 21.6796 39.1565 317° Northwest  Level Estimated
07:35PM 21.6796 39.1565 317° Northwest  Level Estimated
07:36PM 21.6796 39.1565 317° Northwest  Level Estimated
07:37PM 21.6796 39.1565 317° Northwest  Level Estimated
07:38PM 21.6796 39.1565 317° Northwest  Level Estimated
07:39PM 21.6796 39.1565 317° Northwest  Level Estimated
07:40PM 21.6796 39.1565 317° Northwest  Level Estimated
07:41PM 21.6796 39.1565 317° Northwest  Level Estimated
07:42PM 21.6796 39.1565 317° Northwest  Level Estimated
07:43PM 21.6796 39.1565 317° Northwest  Level Estimated
07:44PM 21.6796 39.1565 317° Northwest  Level Estimated
07:45PM 21.6796 39.1565 317° Northwest  Level Estimated
07:46PM 21.6796 39.1565 317° Northwest  Level Estimated